createdAt,value
2022-11-04T00:02:05.229Z,9.10
2022-11-04T00:04:31.741Z,8.50
2022-11-04T00:06:58.439Z,8.80
2022-11-04T00:09:27.439Z,8.73
2022-11-04T00:12:13.037Z,8.60
2022-11-04T00:14:39.473Z,8.38
2022-11-04T00:17:24.272Z,8.45
2022-11-04T00:20:13.300Z,8.18
2022-11-04T00:23:00.347Z,9.35
2022-11-04T00:25:46.551Z,8.35
2022-11-04T00:28:34.392Z,8.38
2022-11-04T00:31:22.290Z,8.07
2022-11-04T00:33:49.722Z,7.93
2022-11-04T00:36:16.566Z,8.05
2022-11-04T00:38:43.043Z,8.48
2022-11-04T00:41:28.755Z,8.32
2022-11-04T00:43:57.793Z,8.40
2022-11-04T00:46:24.468Z,8.18
2022-11-04T00:48:50.974Z,8.57
2022-11-04T00:51:18.101Z,7.70
2022-11-04T00:53:44.486Z,8.23
2022-11-04T00:56:10.972Z,8.30
2022-11-04T00:58:37.439Z,8.93
2022-11-04T01:01:11.438Z,9.25
2022-11-04T01:03:38.188Z,9.85
2022-11-04T01:06:05.733Z,9.27
2022-11-04T01:08:32.190Z,8.98
2022-11-04T01:11:02.477Z,9.32
2022-11-04T01:13:29.110Z,9.48
2022-11-04T01:16:01.926Z,9.40
2022-11-04T01:18:28.746Z,8.73
2022-11-04T01:20:55.167Z,10.00
2022-11-04T01:23:21.559Z,9.18
2022-11-04T01:25:47.976Z,9.95
2022-11-04T01:28:14.455Z,9.05
2022-11-04T01:30:40.916Z,9.68
2022-11-04T01:33:07.492Z,9.80
2022-11-04T01:35:33.900Z,9.40
2022-11-04T01:38:00.356Z,8.93
2022-11-04T01:40:27.121Z,9.90
2022-11-04T01:42:53.586Z,9.52
2022-11-04T01:45:21.804Z,9.75
2022-11-04T01:48:05.208Z,9.43
2022-11-04T01:50:34.761Z,10.23
2022-11-04T01:53:07.229Z,10.85
2022-11-04T01:55:36.292Z,10.23
2022-11-04T01:58:10.673Z,10.15
2022-11-04T02:00:41.842Z,10.35
2022-11-04T02:03:17.172Z,11.40
2022-11-04T02:09:32.391Z,10.00
2022-11-04T02:12:17.608Z,10.95
2022-11-04T02:14:46.392Z,10.95
2022-11-04T02:17:52.132Z,9.85
2022-11-04T02:20:56.796Z,10.20
2022-11-04T02:23:43.409Z,9.60
2022-11-04T02:26:18.780Z,10.15
2022-11-04T02:29:03.608Z,11.27
2022-11-04T02:31:49.782Z,10.32
2022-11-04T02:34:34.510Z,10.60
2022-11-04T02:37:19.102Z,10.95
2022-11-04T02:39:47.182Z,10.68
2022-11-04T02:42:31.245Z,9.82
2022-11-04T02:45:26.742Z,10.63
2022-11-04T02:48:16.562Z,9.88
2022-11-04T02:51:22.514Z,9.75
2022-11-04T02:54:04.547Z,10.25
2022-11-04T02:56:35.800Z,10.57
2022-11-04T02:59:14.314Z,9.80
2022-11-04T03:01:44.959Z,9.75
2022-11-04T03:04:15.523Z,9.87
2022-11-04T03:06:47.695Z,10.68
2022-11-04T03:09:15.460Z,10.23
2022-11-04T03:11:45.653Z,10.27
2022-11-04T03:14:22.834Z,11.00
2022-11-04T03:16:52.853Z,11.50
2022-11-04T03:19:40.080Z,10.43
2022-11-04T03:22:12.349Z,10.70
2022-11-04T03:24:39.901Z,10.25
2022-11-04T03:28:01.805Z,10.45
2022-11-04T03:30:36.266Z,10.73
2022-11-04T03:33:28.658Z,10.82
2022-11-04T03:35:55.152Z,10.45
2022-11-04T03:38:22.666Z,10.65
2022-11-04T03:40:49.937Z,11.48
2022-11-04T03:43:25.735Z,11.70
2022-11-04T03:45:52.532Z,11.50
2022-11-04T03:48:20.777Z,11.55
2022-11-04T03:50:48.790Z,10.73
2022-11-04T03:53:23.819Z,11.27
2022-11-04T03:56:11.845Z,11.10
2022-11-04T03:59:07.850Z,11.98
2022-11-04T04:01:52.856Z,10.75
2022-11-04T04:04:25.236Z,11.63
2022-11-04T04:06:56.253Z,10.30
2022-11-04T04:09:35.512Z,7.85
2022-11-04T04:12:11.337Z,11.77
2022-11-04T04:14:49.348Z,10.60
2022-11-04T04:17:19.327Z,10.57
2022-11-04T04:19:56.155Z,12.05
2022-11-04T04:22:28.277Z,11.15
2022-11-04T04:25:17.048Z,10.43
2022-11-04T04:27:44.952Z,11.10
2022-11-04T04:30:16.821Z,11.48
2022-11-04T04:32:55.840Z,11.25
2022-11-04T04:35:42.829Z,10.80
2022-11-04T04:38:38.272Z,11.95
2022-11-04T04:41:39.904Z,11.18
2022-11-04T04:44:34.275Z,10.73
2022-11-04T04:47:02.843Z,11.18
2022-11-04T04:49:35.025Z,10.88
2022-11-04T04:52:04.162Z,12.00
2022-11-04T04:54:30.588Z,11.45
2022-11-04T04:56:57.020Z,10.25
2022-11-04T04:59:23.454Z,12.10
2022-11-04T05:01:50.158Z,11.98
2022-11-04T05:04:16.801Z,11.15
2022-11-04T05:06:43.195Z,11.52
2022-11-04T05:09:09.654Z,10.38
2022-11-04T05:11:36.245Z,11.90
2022-11-04T05:14:02.665Z,11.82
2022-11-04T05:16:29.523Z,11.10
2022-11-04T05:18:55.935Z,12.57
2022-11-04T05:21:22.328Z,11.57
2022-11-04T05:23:48.767Z,11.10
2022-11-04T05:26:15.403Z,11.90
2022-11-04T05:28:41.847Z,11.05
2022-11-04T05:31:08.264Z,11.88
2022-11-04T05:33:34.717Z,11.90
2022-11-04T05:36:13.122Z,11.27
2022-11-04T05:38:40.363Z,11.57
2022-11-04T05:41:08.593Z,12.13
2022-11-04T05:43:35.477Z,12.30
2022-11-04T05:46:02.386Z,12.15
2022-11-04T05:48:29.153Z,12.85
2022-11-04T05:50:56.013Z,13.05
2022-11-04T05:53:22.609Z,12.93
2022-11-04T05:55:49.094Z,12.43
2022-11-04T05:58:15.541Z,12.55
2022-11-04T06:00:43.045Z,12.63
2022-11-04T06:03:12.151Z,13.57
2022-11-04T06:05:41.845Z,13.63
2022-11-04T06:08:08.571Z,15.07
2022-11-04T06:10:35.246Z,17.08
2022-11-04T06:13:01.684Z,13.45
2022-11-04T06:15:28.094Z,13.60
2022-11-04T06:17:54.519Z,14.65
2022-11-04T06:20:20.945Z,14.38
2022-11-04T06:22:47.405Z,15.35
2022-11-04T06:25:13.842Z,15.05
2022-11-04T06:27:40.355Z,15.18
2022-11-04T06:30:07.416Z,16.98
2022-11-04T06:32:33.864Z,17.45
2022-11-04T06:35:00.310Z,16.30
2022-11-04T06:37:26.709Z,16.42
2022-11-04T06:39:53.141Z,15.65
2022-11-04T06:42:19.692Z,16.50
2022-11-04T06:44:46.174Z,16.20
2022-11-04T06:47:12.813Z,15.90
2022-11-04T06:49:39.874Z,15.80
2022-11-04T06:52:06.289Z,17.27
2022-11-04T06:54:32.727Z,16.65
2022-11-04T06:56:59.358Z,16.80
2022-11-04T06:59:25.807Z,17.38
2022-11-04T07:01:52.451Z,17.25
2022-11-04T07:04:19.401Z,19.75
2022-11-04T07:06:45.896Z,22.73
2022-11-04T07:09:14.061Z,23.17
2022-11-04T07:11:41.309Z,21.88
2022-11-04T07:14:08.904Z,19.40
2022-11-04T07:16:35.886Z,20.75
2022-11-04T07:19:02.812Z,19.40
2022-11-04T07:21:29.370Z,19.52
2022-11-04T07:23:55.814Z,19.85
2022-11-04T07:26:22.229Z,20.73
2022-11-04T07:28:48.812Z,19.77
2022-11-04T07:31:16.940Z,19.08
2022-11-04T07:33:43.496Z,19.73
2022-11-04T07:36:13.433Z,20.55
2022-11-04T07:38:39.831Z,22.60
2022-11-04T07:41:07.102Z,23.08
2022-11-04T07:43:33.817Z,21.42
2022-11-04T07:46:05.765Z,19.35
2022-11-04T07:48:32.365Z,18.02
2022-11-04T07:51:00.204Z,18.40
2022-11-04T07:53:27.980Z,18.92
2022-11-04T07:55:54.444Z,17.25
2022-11-04T07:58:22.240Z,17.05
2022-11-04T08:00:48.955Z,17.50
2022-11-04T08:03:15.714Z,16.25
2022-11-04T08:05:42.160Z,16.92
2022-11-04T08:08:08.568Z,15.85
2022-11-04T08:10:35.905Z,15.73
2022-11-04T08:13:02.284Z,17.02
2022-11-04T08:15:29.195Z,18.80
2022-11-04T08:17:55.613Z,16.00
2022-11-04T08:20:22.032Z,16.80
2022-11-04T08:22:48.404Z,15.00
2022-11-04T08:25:14.989Z,15.88
2022-11-04T08:27:41.399Z,17.20
2022-11-04T08:30:08.803Z,15.55
2022-11-04T08:32:35.405Z,15.10
2022-11-04T08:35:01.798Z,16.58
2022-11-04T08:37:28.266Z,15.95
2022-11-04T08:39:54.667Z,16.67
2022-11-04T08:42:21.181Z,15.75
2022-11-04T08:44:51.519Z,15.77
2022-11-04T08:47:18.171Z,14.52
2022-11-04T08:49:44.607Z,14.57
2022-11-04T08:52:11.072Z,11.90
2022-11-04T08:54:37.560Z,13.38
2022-11-04T08:57:03.992Z,12.25
2022-11-04T08:59:30.423Z,12.38
2022-11-04T09:01:57.276Z,12.80
2022-11-04T09:04:23.981Z,12.63
2022-11-04T09:06:52.077Z,11.70
2022-11-04T09:09:19.056Z,12.85
2022-11-04T09:11:46.778Z,12.75
2022-11-04T09:14:13.375Z,11.25
2022-11-04T09:16:41.101Z,12.82
2022-11-04T09:19:08.084Z,12.85
2022-11-04T09:21:34.723Z,10.90
2022-11-04T09:24:01.218Z,11.35
2022-11-04T09:26:28.131Z,11.40
2022-11-04T09:28:56.129Z,11.70
2022-11-04T09:31:23.067Z,10.90
2022-11-04T09:33:50.365Z,12.05
2022-11-04T09:36:17.226Z,11.25
2022-11-04T09:38:44.963Z,11.55
2022-11-04T09:41:23.502Z,12.27
2022-11-04T09:44:08.742Z,10.63
2022-11-04T09:46:37.286Z,11.45
2022-11-04T09:49:07.543Z,11.00
2022-11-04T09:54:45.813Z,10.70
2022-11-04T09:57:17.574Z,10.85
2022-11-04T09:59:44.528Z,10.88
2022-11-04T10:02:11.709Z,11.63
2022-11-04T10:04:50.573Z,11.07
2022-11-04T10:07:26.903Z,11.20
2022-11-04T10:10:15.052Z,11.02
2022-11-04T10:13:01.791Z,11.45
2022-11-04T10:16:02.135Z,10.98
2022-11-04T10:18:55.227Z,11.23
2022-11-04T10:21:30.354Z,10.93
2022-11-04T10:24:15.431Z,9.88
2022-11-04T10:26:44.802Z,10.48
2022-11-04T10:29:23.641Z,10.85
2022-11-04T10:31:52.130Z,11.10
2022-11-04T10:34:50.832Z,10.10
2022-11-04T10:37:17.689Z,9.52
2022-11-04T10:39:46.152Z,10.55
2022-11-04T10:42:24.511Z,10.32
2022-11-04T10:44:52.280Z,9.02
2022-11-04T10:47:34.267Z,9.90
2022-11-04T10:50:28.980Z,10.40
2022-11-04T10:53:14.730Z,10.20
2022-11-04T10:55:51.307Z,9.73
2022-11-04T10:58:27.500Z,9.55
2022-11-04T11:00:54.662Z,13.48
2022-11-04T11:03:34.841Z,12.98
2022-11-04T11:06:40.246Z,11.98
2022-11-04T11:09:15.257Z,10.05
2022-11-04T11:11:51.841Z,10.15
2022-11-04T11:14:30.366Z,10.63
2022-11-04T11:17:04.776Z,9.13
2022-11-04T11:19:46.130Z,10.13
2022-11-04T11:22:28.218Z,10.07
2022-11-04T11:25:12.509Z,10.13
2022-11-04T11:27:39.403Z,10.30
2022-11-04T11:30:06.379Z,9.35
2022-11-04T11:32:43.301Z,8.95
2022-11-04T11:35:21.882Z,8.85
2022-11-04T11:37:48.975Z,9.93
2022-11-04T11:40:31.620Z,9.25
2022-11-04T11:43:00.803Z,9.82
2022-11-04T11:45:28.737Z,9.30
2022-11-04T11:47:56.142Z,9.48
2022-11-04T11:50:32.569Z,9.50
2022-11-04T11:53:27.009Z,9.30
2022-11-04T11:56:17.305Z,9.43
2022-11-04T12:01:50.813Z,8.60
2022-11-04T12:10:10.117Z,10.45
2022-11-04T12:12:53.749Z,14.70
2022-11-04T12:15:46.865Z,10.25
2022-11-04T12:18:33.088Z,9.82
2022-11-04T12:21:16.928Z,11.23
2022-11-04T12:23:55.566Z,9.70
2022-11-04T12:26:36.688Z,10.70
2022-11-04T12:29:10.320Z,10.98
2022-11-04T12:32:02.658Z,11.48
2022-11-04T12:34:47.055Z,10.45
2022-11-04T12:37:38.569Z,10.63
2022-11-04T12:41:05.071Z,10.52
2022-11-04T12:43:54.136Z,10.35
2022-11-04T12:46:46.123Z,11.20
2022-11-04T12:50:14.884Z,10.80
2022-11-04T12:53:25.973Z,11.00
2022-11-04T12:56:11.242Z,9.50
2022-11-04T12:59:08.709Z,11.00
2022-11-04T13:01:44.181Z,10.95
2022-11-04T13:04:14.772Z,11.65
2022-11-04T13:07:01.065Z,10.93
2022-11-04T13:09:49.393Z,12.43
2022-11-04T13:12:25.433Z,12.38
2022-11-04T13:14:51.797Z,11.95
2022-11-04T13:17:24.124Z,12.63
2022-11-04T13:19:53.038Z,13.43
2022-11-04T13:22:26.330Z,12.23
2022-11-04T13:24:59.207Z,11.50
2022-11-04T13:27:33.114Z,11.63
2022-11-04T13:30:06.212Z,11.75
2022-11-04T13:33:09.023Z,10.45
2022-11-04T13:35:48.209Z,11.18
2022-11-04T13:38:20.614Z,10.20
2022-11-04T13:40:58.453Z,11.45
2022-11-04T13:43:39.340Z,11.85
2022-11-04T13:46:31.249Z,10.52
2022-11-04T13:51:45.003Z,10.52
2022-11-04T13:54:39.202Z,11.15
2022-11-04T13:57:18.856Z,11.50
2022-11-04T14:00:18.329Z,10.23
2022-11-04T14:02:49.253Z,10.60
2022-11-04T14:05:28.248Z,11.45
2022-11-04T14:08:03.564Z,10.73
2022-11-04T14:10:48.275Z,10.88
2022-11-04T14:13:30.045Z,11.23
2022-11-04T14:18:31.272Z,12.38
2022-11-04T14:21:05.638Z,12.20
2022-11-04T14:23:33.035Z,11.68
2022-11-04T14:26:02.720Z,11.02
2022-11-04T14:28:30.913Z,10.55
2022-11-04T14:31:00.538Z,10.57
2022-11-04T14:33:51.603Z,11.15
2022-11-04T14:36:20.788Z,10.20
2022-11-04T14:39:10.281Z,9.95
2022-11-04T14:41:39.716Z,10.10
2022-11-04T14:44:21.275Z,10.90
2022-11-04T14:46:51.701Z,10.25
2022-11-04T14:49:39.984Z,10.57
2022-11-04T14:52:17.037Z,13.75
2022-11-04T14:54:43.736Z,15.52
2022-11-04T14:57:17.782Z,11.75
2022-11-04T14:59:44.704Z,11.52
2022-11-04T15:02:31.494Z,12.07
2022-11-04T15:05:00.164Z,11.80
2022-11-04T15:07:26.538Z,11.23
2022-11-04T15:09:52.983Z,10.88
2022-11-04T15:12:38.550Z,11.10
2022-11-04T15:15:34.352Z,12.15
2022-11-04T15:18:05.083Z,12.93
2022-11-04T15:20:32.857Z,12.47
2022-11-04T15:23:02.979Z,11.73
2022-11-04T15:25:29.671Z,11.32
2022-11-04T15:27:56.722Z,13.05
2022-11-04T15:30:25.782Z,12.20
2022-11-04T15:33:03.582Z,15.95
2022-11-04T15:35:33.251Z,14.43
2022-11-04T15:38:01.684Z,13.20
2022-11-04T15:40:29.702Z,12.85
2022-11-04T15:42:58.826Z,13.02
2022-11-04T15:45:59.476Z,13.32
2022-11-04T15:48:34.827Z,18.85
2022-11-04T15:51:21.930Z,13.02
2022-11-04T15:53:55.102Z,13.38
2022-11-04T15:56:26.073Z,11.80
2022-11-04T15:58:54.264Z,13.30
2022-11-04T16:01:21.213Z,12.75
2022-11-04T16:03:56.420Z,12.90
2022-11-04T16:06:42.016Z,12.88
2022-11-04T16:09:21.402Z,11.90
2022-11-04T16:12:09.199Z,12.15
2022-11-04T16:14:35.798Z,12.27
2022-11-04T16:17:02.277Z,12.88
2022-11-04T16:19:30.203Z,11.98
2022-11-04T16:22:04.803Z,12.43
2022-11-04T16:24:34.664Z,12.60
2022-11-04T16:27:01.406Z,12.60
2022-11-04T16:29:30.925Z,12.93
2022-11-04T16:32:18.021Z,13.05
2022-11-04T16:34:46.824Z,12.77
2022-11-04T16:37:13.284Z,12.02
2022-11-04T16:39:40.506Z,12.38
2022-11-04T16:42:07.214Z,12.40
2022-11-04T16:44:33.854Z,12.25
2022-11-04T16:47:00.873Z,12.85
2022-11-04T16:49:27.342Z,12.77
2022-11-04T16:51:56.458Z,12.30
2022-11-04T16:54:24.561Z,12.38
2022-11-04T16:56:51.151Z,12.00
2022-11-04T16:59:17.812Z,13.85
2022-11-04T17:01:44.372Z,12.82
2022-11-04T17:04:10.906Z,12.40
2022-11-04T17:06:38.196Z,13.18
2022-11-04T17:09:17.769Z,14.25
2022-11-04T17:11:44.152Z,12.77
2022-11-04T17:14:10.525Z,12.18
2022-11-04T17:16:36.910Z,12.38
2022-11-04T17:19:03.323Z,12.80
2022-11-04T17:21:30.247Z,14.05
2022-11-04T17:23:56.984Z,12.25
2022-11-04T17:26:23.562Z,13.35
2022-11-04T17:28:50.136Z,13.10
2022-11-04T17:31:19.032Z,13.30
2022-11-04T17:33:45.509Z,13.50
2022-11-04T17:36:16.899Z,13.13
2022-11-04T17:38:43.419Z,14.80
2022-11-04T17:41:28.875Z,14.15
2022-11-04T17:44:01.463Z,15.98
2022-11-04T17:46:37.628Z,15.20
2022-11-04T17:49:12.007Z,14.77
2022-11-04T17:51:40.283Z,14.52
2022-11-04T17:54:07.232Z,13.95
2022-11-04T17:56:33.720Z,17.25
2022-11-04T17:59:01.369Z,14.63
2022-11-04T18:01:28.709Z,13.57
2022-11-04T18:03:55.516Z,15.65
2022-11-04T18:06:22.476Z,14.82
2022-11-04T18:08:49.144Z,13.40
2022-11-04T18:11:35.769Z,13.90
2022-11-04T18:14:02.262Z,13.75
2022-11-04T18:16:28.837Z,13.50
2022-11-04T18:18:56.899Z,13.23
2022-11-04T18:21:23.355Z,13.13
2022-11-04T18:23:49.734Z,13.20
2022-11-04T18:26:16.157Z,12.85
2022-11-04T18:28:42.939Z,12.90
2022-11-04T18:31:11.537Z,12.43
2022-11-04T18:33:38.314Z,11.98
2022-11-04T18:36:05.792Z,12.98
2022-11-04T18:38:32.806Z,13.60
2022-11-04T18:40:59.674Z,12.30
2022-11-04T18:43:26.240Z,12.45
2022-11-04T18:45:53.549Z,12.45
2022-11-04T18:48:21.267Z,12.70
2022-11-04T18:50:48.575Z,13.48
2022-11-04T18:53:15.711Z,13.70
2022-11-04T18:55:42.152Z,14.48
2022-11-04T18:58:09.049Z,13.77
2022-11-04T19:00:37.548Z,13.45
2022-11-04T19:03:04.059Z,13.82
2022-11-04T19:05:30.602Z,12.98
2022-11-04T19:07:57.011Z,14.35
2022-11-04T19:10:23.424Z,11.77
2022-11-04T19:13:08.948Z,13.07
2022-11-04T19:15:35.763Z,13.48
2022-11-04T19:18:02.171Z,13.75
2022-11-04T19:20:28.608Z,13.45
2022-11-04T19:22:55.037Z,14.00
2022-11-04T19:25:21.644Z,13.27
2022-11-04T19:28:05.255Z,14.57
2022-11-04T19:30:34.623Z,14.07
2022-11-04T19:33:01.271Z,13.00
2022-11-04T19:35:28.073Z,14.65
2022-11-04T19:37:54.930Z,20.10
2022-11-04T19:40:22.120Z,14.48
2022-11-04T19:43:06.899Z,14.52
2022-11-04T19:45:33.383Z,15.68
2022-11-04T19:47:59.930Z,14.90
2022-11-04T19:50:26.507Z,15.27
2022-11-04T19:52:52.944Z,14.32
2022-11-04T19:55:19.693Z,15.35
2022-11-04T19:57:46.077Z,15.05
2022-11-04T20:00:12.717Z,15.05
2022-11-04T20:02:39.385Z,14.35
2022-11-04T20:05:07.168Z,14.57
2022-11-04T20:07:33.611Z,14.35
2022-11-04T20:10:00.067Z,13.68
2022-11-04T20:12:45.276Z,13.25
2022-11-04T20:15:11.751Z,14.38
2022-11-04T20:17:38.195Z,13.85
2022-11-04T20:20:05.013Z,12.80
2022-11-04T20:22:31.473Z,13.45
2022-11-04T20:24:57.949Z,14.25
2022-11-04T20:27:24.359Z,13.93
2022-11-04T20:29:50.968Z,13.48
2022-11-04T20:32:17.429Z,13.52
2022-11-04T20:34:43.964Z,14.38
2022-11-04T20:37:12.387Z,22.33
2022-11-04T20:39:38.827Z,15.85
2022-11-04T20:42:05.363Z,13.30
2022-11-04T20:44:32.397Z,13.73
2022-11-04T20:46:59.374Z,12.77
2022-11-04T20:49:25.795Z,14.45
2022-11-04T20:51:55.470Z,14.15
2022-11-04T20:54:22.539Z,13.18
2022-11-04T20:56:48.957Z,15.40
2022-11-04T20:59:16.622Z,13.57
2022-11-04T21:01:44.911Z,13.30
2022-11-04T21:04:15.115Z,14.88
2022-11-04T21:06:41.966Z,13.95
2022-11-04T21:09:09.986Z,14.18
2022-11-04T21:11:36.483Z,12.77
2022-11-04T21:14:03.555Z,13.93
2022-11-04T21:16:30.487Z,13.32
2022-11-04T21:18:57.805Z,13.95
2022-11-04T21:21:27.194Z,12.93
2022-11-04T21:24:01.665Z,14.73
2022-11-04T21:26:30.236Z,13.38
2022-11-04T21:29:01.586Z,13.73
2022-11-04T21:31:30.463Z,14.52
2022-11-04T21:33:57.078Z,14.95
2022-11-04T21:36:23.557Z,13.63
2022-11-04T21:38:50.596Z,15.50
2022-11-04T21:43:59.854Z,13.77
2022-11-04T21:46:28.114Z,14.48
2022-11-04T21:48:55.100Z,14.73
2022-11-04T21:51:24.097Z,13.60
2022-11-04T21:53:50.583Z,13.68
2022-11-04T21:56:19.945Z,14.82
2022-11-04T21:58:46.807Z,13.95
2022-11-04T22:01:16.836Z,14.07
2022-11-04T22:03:43.608Z,14.00
2022-11-04T22:06:12.413Z,13.95
2022-11-04T22:08:43.175Z,15.05
2022-11-04T22:11:12.979Z,14.07
2022-11-04T22:13:39.524Z,15.55
2022-11-04T22:16:14.789Z,14.63
2022-11-04T22:18:41.341Z,15.63
2022-11-04T22:21:11.634Z,14.38
2022-11-04T22:23:38.136Z,13.40
2022-11-04T22:26:17.240Z,14.63
2022-11-04T22:28:44.107Z,15.07
2022-11-04T22:31:16.648Z,14.60
2022-11-04T22:33:43.305Z,14.50
2022-11-04T22:36:10.897Z,15.40
2022-11-04T22:38:38.366Z,17.35
2022-11-04T22:41:07.461Z,16.23
2022-11-04T22:43:34.246Z,15.85
2022-11-04T22:46:08.995Z,15.30
2022-11-04T22:48:36.197Z,15.68
2022-11-04T22:51:02.657Z,15.98
2022-11-04T22:53:29.137Z,16.17
2022-11-04T22:56:00.056Z,16.02
2022-11-04T22:58:27.715Z,17.50
2022-11-04T23:00:56.576Z,16.10
2022-11-04T23:03:24.316Z,15.90
2022-11-04T23:05:55.418Z,16.02
2022-11-04T23:08:22.267Z,15.13
2022-11-04T23:11:07.234Z,14.90
2022-11-04T23:13:52.426Z,14.43
2022-11-04T23:16:42.018Z,15.52
2022-11-04T23:19:08.596Z,14.80
2022-11-04T23:21:53.583Z,14.68
2022-11-04T23:24:38.603Z,14.15
2022-11-04T23:27:05.068Z,14.68
2022-11-04T23:32:06.684Z,13.65
2022-11-04T23:34:51.852Z,13.00
2022-11-04T23:37:18.444Z,12.32
2022-11-04T23:39:47.415Z,12.73
2022-11-04T23:42:17.458Z,13.25
2022-11-04T23:45:12.792Z,12.20
2022-11-04T23:48:03.302Z,12.43
2022-11-04T23:50:53.704Z,12.13
2022-11-04T23:53:39.690Z,14.00
2022-11-04T23:56:27.790Z,12.70
2022-11-04T23:59:12.619Z,12.40
